Time;durP1;ratioP1;P1;durP2;ratioP2;P2;SDS_P1;SDS_P2;PMS_P1;PMS_P2;Temp;Humidity;BMP_temperature;BMP_pressure;BME280_temperature;BME280_humidity;BME280_pressure;Samples;Min_cycle;Max_cycle;Signal;HPM_P1;HPM_P2
2021/10/22 00:00:24;;;;;;;20.38;10.90;;;;;;;12.24;59.33;97433.59;5126127;27;20049;-74
2021/10/22 00:02:50;;;;;;;24.65;12.02;;;;;;;12.20;59.27;97432.31;5115487;27;20044;-75
2021/10/22 00:05:16;;;;;;;22.88;12.20;;;;;;;12.19;59.12;97418.25;5114247;28;20043;-75
2021/10/22 00:07:42;;;;;;;28.08;11.23;;;;;;;12.21;59.20;97421.56;5115057;27;20036;-73
2021/10/22 00:10:09;;;;;;;25.92;12.55;;;;;;;12.20;59.28;97421.72;5112728;28;20040;-77
2021/10/22 00:12:38;;;;;;;22.55;11.20;;;;;;;12.19;59.21;97410.31;5097908;27;20104;-75
2021/10/22 00:15:08;;;;;;;21.20;11.40;;;;;;;12.17;59.34;97432.69;5123501;27;20043;-76
2021/10/22 00:17:36;;;;;;;22.40;11.25;;;;;;;12.16;59.12;97431.03;5115836;27;20028;-74
2021/10/22 00:20:04;;;;;;;23.25;12.57;;;;;;;12.13;59.55;97440.19;5113512;27;20043;-73
2021/10/22 00:22:32;;;;;;;20.23;11.15;;;;;;;12.12;59.70;97452.63;5097756;28;20505;-73
2021/10/22 00:24:58;;;;;;;23.45;11.98;;;;;;;12.11;59.20;97443.03;5117439;27;20122;-75
2021/10/22 00:27:24;;;;;;;23.30;10.90;;;;;;;12.11;59.27;97440.38;5112931;28;20373;-77
2021/10/22 00:29:50;;;;;;;28.80;11.80;;;;;;;12.11;59.75;97427.13;5099113;27;20142;-74
2021/10/22 00:32:16;;;;;;;23.73;11.68;;;;;;;12.09;59.44;97405.28;5112922;28;20122;-75
2021/10/22 00:34:41;;;;;;;28.77;12.38;;;;;;;12.08;59.45;97403.63;5116628;27;20086;-74
2021/10/22 00:37:07;;;;;;;26.25;11.77;;;;;;;12.12;59.55;97420.00;5126163;27;20039;-75
2021/10/22 00:39:34;;;;;;;21.52;11.02;;;;;;;12.10;59.40;97414.88;5113249;27;20411;-74
2021/10/22 00:42:00;;;;;;;24.58;12.15;;;;;;;12.08;59.49;97419.53;5113223;27;20035;-71
2021/10/22 00:44:26;;;;;;;24.48;11.95;;;;;;;12.02;59.92;97424.75;5113333;27;20075;-75
2021/10/22 00:46:55;;;;;;;21.98;11.32;;;;;;;11.99;59.88;97441.84;5107149;28;20039;-76
2021/10/22 00:49:22;;;;;;;25.33;11.57;;;;;;;12.01;60.16;97449.59;5113128;28;20080;-71
2021/10/22 00:51:47;;;;;;;23.83;11.77;;;;;;;12.00;60.08;97443.50;5113337;27;20040;-72
2021/10/22 00:54:13;;;;;;;23.75;12.23;;;;;;;11.97;59.82;97457.94;5095041;28;20118;-74
2021/10/22 00:56:40;;;;;;;22.33;12.33;;;;;;;11.95;60.06;97444.00;5094664;28;20035;-71
2021/10/22 00:59:06;;;;;;;23.95;11.90;;;;;;;11.97;60.19;97454.44;5116486;27;20058;-74
2021/10/22 01:01:39;;;;;;;23.30;11.65;;;;;;;11.99;59.71;97447.13;5094974;28;20042;-74
2021/10/22 01:04:06;;;;;;;25.52;12.05;;;;;;;11.98;60.17;97429.59;5111452;27;20123;-72
2021/10/22 01:06:36;;;;;;;28.98;12.45;;;;;;;12.01;59.58;97418.63;5117820;27;20047;-73
2021/10/22 01:09:03;;;;;;;25.70;12.50;;;;;;;12.02;59.65;97422.91;5112139;27;20043;-73
2021/10/22 01:11:30;;;;;;;24.48;11.98;;;;;;;12.02;59.99;97424.75;5117034;27;20399;-72
2021/10/22 01:13:56;;;;;;;23.77;12.30;;;;;;;12.02;59.76;97422.09;5119043;27;20052;-74
2021/10/22 01:16:22;;;;;;;29.55;12.65;;;;;;;12.02;59.67;97414.16;5112345;27;20044;-74
2021/10/22 01:18:50;;;;;;;22.75;12.52;;;;;;;12.00;60.09;97418.81;5111986;28;20035;-74
2021/10/22 01:21:16;;;;;;;27.70;12.05;;;;;;;11.97;59.89;97402.28;5106967;27;20038;-76
2021/10/22 01:23:42;;;;;;;22.85;12.27;;;;;;;11.95;60.23;97414.03;5115711;27;20040;-75
2021/10/22 01:26:08;;;;;;;28.23;13.13;;;;;;;11.92;60.43;97414.41;5074196;28;20177;-74
2021/10/22 01:28:34;;;;;;;25.98;11.82;;;;;;;11.88;60.42;97418.44;5109019;27;20499;-74
2021/10/22 01:31:00;;;;;;;23.50;12.52;;;;;;;11.86;60.30;97415.13;5112180;28;20040;-77
2021/10/22 01:33:27;;;;;;;25.35;11.70;;;;;;;11.87;60.52;97414.94;5113873;27;20043;-74
2021/10/22 01:35:53;;;;;;;27.57;12.97;;;;;;;11.83;60.68;97421.63;5113879;28;20138;-78
2021/10/22 01:38:21;;;;;;;28.00;13.20;;;;;;;11.81;60.62;97424.47;5110814;27;20281;-78
2021/10/22 01:40:53;;;;;;;32.75;13.20;;;;;;;11.81;60.73;97421.81;5113812;28;20548;-77
2021/10/22 01:43:20;;;;;;;21.55;12.10;;;;;;;11.81;60.65;97435.06;5072958;28;20032;-76
2021/10/22 01:45:47;;;;;;;24.35;12.77;;;;;;;11.80;60.86;97429.91;5109452;27;20039;-76
2021/10/22 01:48:13;;;;;;;23.83;12.25;;;;;;;11.85;60.41;97430.22;5096534;28;20047;-77
2021/10/22 01:50:39;;;;;;;25.67;13.20;;;;;;;11.85;60.52;97435.50;5094099;28;20410;-76
2021/10/22 01:53:04;;;;;;;25.60;13.00;;;;;;;11.84;60.46;97435.66;5116015;27;20046;-75
2021/10/22 01:55:30;;;;;;;27.70;13.18;;;;;;;11.86;60.61;97436.31;5093515;28;20038;-75
2021/10/22 01:57:56;;;;;;;23.70;13.25;;;;;;;11.82;60.41;97427.91;5111550;28;20537;-80
2021/10/22 02:00:22;;;;;;;25.58;11.85;;;;;;;11.84;60.66;97419.78;5121632;27;20045;-75
2021/10/22 02:02:48;;;;;;;32.35;12.57;;;;;;;11.84;60.33;97433.03;5119671;27;20051;-73
2021/10/22 02:05:14;;;;;;;26.27;12.13;;;;;;;11.83;60.68;97437.50;5115220;27;20036;-75
2021/10/22 02:07:40;;;;;;;25.85;13.95;;;;;;;11.84;60.67;97433.88;5111583;28;20104;-74
2021/10/22 02:10:07;;;;;;;26.90;14.00;;;;;;;11.85;60.64;97434.66;5111584;27;20035;-75
2021/10/22 02:12:33;;;;;;;32.47;14.02;;;;;;;11.82;61.02;97420.81;5125077;27;20051;-73
2021/10/22 02:14:59;;;;;;;24.20;12.68;;;;;;;11.81;60.99;97429.75;5121518;27;20435;-74
2021/10/22 02:17:25;;;;;;;25.35;12.20;;;;;;;11.80;60.76;97421.97;5126447;27;20067;-75
2021/10/22 02:19:51;;;;;;;32.42;13.48;;;;;;;11.81;60.72;97423.63;5099943;28;20063;-76
2021/10/22 02:22:17;;;;;;;24.10;13.15;;;;;;;11.82;61.02;97426.09;5111427;28;20488;-74
2021/10/22 02:24:42;;;;;;;26.88;14.00;;;;;;;11.79;60.88;97418.50;5111576;28;20518;-78
2021/10/22 02:27:09;;;;;;;27.30;12.23;;;;;;;11.79;60.68;97437.03;5111608;28;20641;-81
2021/10/22 02:29:35;;;;;;;31.25;13.73;;;;;;;11.80;61.07;97433.41;5111440;28;20043;-74
2021/10/22 02:32:01;;;;;;;28.42;13.10;;;;;;;11.81;60.82;97429.75;5124330;27;20050;-73
2021/10/22 02:34:27;;;;;;;27.60;12.30;;;;;;;11.81;60.92;97415.66;5133357;27;20038;-75
2021/10/22 02:36:53;;;;;;;31.40;15.07;;;;;;;11.77;61.05;97428.44;5135484;27;20047;-75
2021/10/22 02:39:19;;;;;;;33.45;16.30;;;;;;;11.71;61.63;97429.19;5099566;27;20039;-81
2021/10/22 02:41:45;;;;;;;30.80;13.07;;;;;;;11.75;61.51;97441.06;5117775;27;20062;-79
2021/10/22 02:44:14;;;;;;;28.73;14.02;;;;;;;11.77;61.47;97438.22;5097889;28;20399;-75
2021/10/22 02:46:41;;;;;;;29.30;13.55;;;;;;;11.75;61.28;97435.78;5116666;27;20095;-78
2021/10/22 02:49:07;;;;;;;30.60;13.40;;;;;;;11.77;61.30;97448.81;5116225;28;20059;-79
2021/10/22 02:51:33;;;;;;;27.58;13.50;;;;;;;11.78;61.15;97440.69;5124930;27;20039;-77
2021/10/22 02:53:58;;;;;;;24.85;12.98;;;;;;;11.81;61.39;97437.69;5069532;28;20442;-76
2021/10/22 02:56:25;;;;;;;27.98;12.90;;;;;;;11.81;61.53;97437.69;5115324;28;20112;-75
2021/10/22 02:58:52;;;;;;;65.40;25.95;;;;;;;11.82;61.21;97443.81;5128739;27;20072;-78
2021/10/22 03:01:18;;;;;;;27.63;13.75;;;;;;;11.81;60.97;97435.06;5127874;27;20516;-79
2021/10/22 03:03:44;;;;;;;35.63;14.68;;;;;;;11.81;61.79;97434.22;5098491;28;20050;-75
2021/10/22 03:06:11;;;;;;;25.90;13.18;;;;;;;11.82;61.24;97431.41;5115292;28;20035;-75
2021/10/22 03:08:36;;;;;;;26.83;13.85;;;;;;;11.85;61.00;97429.38;5114843;28;20547;-75
2021/10/22 03:11:02;;;;;;;28.13;13.35;;;;;;;11.83;61.28;97432.22;5115147;27;20134;-76
2021/10/22 03:13:28;;;;;;;31.35;14.23;;;;;;;11.84;61.25;97422.44;5097107;28;20044;-78
2021/10/22 03:15:55;;;;;;;27.55;12.52;;;;;;;11.84;61.53;97419.78;5116215;27;20047;-77
2021/10/22 03:18:20;;;;;;;26.80;13.20;;;;;;;11.84;61.14;97422.44;5097853;28;20047;-79
2021/10/22 03:20:46;;;;;;;29.67;14.40;;;;;;;11.80;61.40;97428.09;5096286;28;20484;-81
2021/10/22 03:23:12;;;;;;;26.35;13.65;;;;;;;11.78;61.42;97419.50;5114762;27;20048;-80
2021/10/22 03:25:38;;;;;;;28.55;13.95;;;;;;;11.80;61.56;97411.38;5115565;27;20041;-78
2021/10/22 03:28:04;;;;;;;27.52;12.60;;;;;;;11.81;61.58;97411.22;5119162;27;20058;-76
2021/10/22 03:30:35;;;;;;;26.13;13.55;;;;;;;11.81;61.68;97411.22;5114254;28;20063;-76
2021/10/22 03:33:02;;;;;;;27.70;13.40;;;;;;;11.81;61.33;97405.06;5127174;27;20380;-76
2021/10/22 03:35:28;;;;;;;26.50;13.40;;;;;;;11.79;61.65;97421.16;5127602;27;20039;-77
2021/10/22 03:37:53;;;;;;;27.92;14.07;;;;;;;11.80;61.40;97406.91;5116869;27;20122;-78
2021/10/22 03:40:20;;;;;;;32.63;14.50;;;;;;;11.80;61.47;97428.09;5071185;28;20222;-78
2021/10/22 03:42:47;;;;;;;25.83;13.80;;;;;;;11.76;61.65;97420.69;5108271;27;20043;-79
2021/10/22 03:45:14;;;;;;;23.25;13.20;;;;;;;11.73;61.47;97421.88;5122576;27;20118;-78
2021/10/22 03:47:42;;;;;;;22.77;13.40;;;;;;;11.73;61.54;97410.47;5116641;27;20470;-80
2021/10/22 03:50:08;;;;;;;;;;;;;;;11.72;61.49;97408.84;5096592;28;20065;-80
2021/10/22 03:52:35;;;;;;;32.20;14.07;;;;;;;11.69;61.59;97419.78;5115055;28;20410;-76
2021/10/22 03:55:01;;;;;;;28.98;14.48;;;;;;;11.65;61.74;97420.16;5115034;28;20063;-76
2021/10/22 03:57:26;;;;;;;33.67;14.73;;;;;;;11.60;62.09;97406.63;5079662;28;20043;-73
2021/10/22 03:59:52;;;;;;;29.73;13.95;;;;;;;11.56;62.32;97405.34;5114226;28;20039;-77
2021/10/22 04:02:19;;;;;;;30.30;13.90;;;;;;;11.54;62.25;97407.38;5128495;27;20092;-78
2021/10/22 04:04:44;;;;;;;32.95;14.30;;;;;;;11.53;62.28;97416.31;5118604;27;20043;-77
2021/10/22 04:07:11;;;;;;;95.05;37.50;;;;;;;11.53;62.42;97420.78;5133224;27;20044;-76
2021/10/22 04:09:37;;;;;;;23.50;13.77;;;;;;;11.49;62.51;97422.97;5115280;27;20495;-78
2021/10/22 04:12:03;;;;;;;26.75;13.93;;;;;;;11.43;62.50;97423.69;5104130;28;20066;-78
2021/10/22 04:14:29;;;;;;;26.15;14.18;;;;;;;11.42;63.06;97422.84;5126723;27;20039;-75
2021/10/22 04:16:56;;;;;;;29.17;14.63;;;;;;;11.42;63.08;97429.97;5116410;27;20035;-76
2021/10/22 04:19:24;;;;;;;32.72;15.43;;;;;;;11.45;62.98;97443.69;5133922;27;20035;-77
2021/10/22 04:21:50;;;;;;;36.55;16.35;;;;;;;11.49;63.14;97437.00;5126475;27;20031;-77
2021/10/22 04:24:18;;;;;;;29.98;16.40;;;;;;;11.52;62.98;97427.88;5113494;28;20040;-78
2021/10/22 04:26:46;;;;;;;31.20;14.85;;;;;;;11.53;63.09;97434.03;5114052;28;20487;-78
2021/10/22 04:29:14;;;;;;;30.27;15.25;;;;;;;11.56;62.78;97428.34;5113324;28;20054;-76
2021/10/22 04:31:40;;;;;;;26.98;15.32;;;;;;;11.54;62.79;97428.53;5113017;28;20122;-76
2021/10/22 04:34:06;;;;;;;33.17;15.20;;;;;;;11.52;63.03;97427.06;5113129;28;20043;-79
2021/10/22 04:36:32;;;;;;;29.27;13.68;;;;;;;11.51;62.95;97417.47;5097687;28;20135;-75
2021/10/22 04:41:42;;;;;;;25.35;13.25;;;;;;;11.52;63.17;97413.84;5119632;27;20173;-76
2021/10/22 04:44:08;;;;;;;29.48;14.93;;;;;;;11.47;62.96;97417.03;5117526;27;20129;-78
2021/10/22 04:46:34;;;;;;;33.53;14.75;;;;;;;11.44;63.12;97423.50;5104008;27;20040;-77
2021/10/22 04:49:00;;;;;;;32.58;15.05;;;;;;;11.46;63.11;97428.59;5114236;28;20480;-77
2021/10/22 04:51:26;;;;;;;28.17;14.05;;;;;;;11.43;63.63;97432.44;5115001;27;20080;-79
2021/10/22 04:53:51;;;;;;;33.15;15.18;;;;;;;11.41;63.67;97433.63;5094208;28;20134;-80
2021/10/22 04:56:20;;;;;;;25.65;14.52;;;;;;;11.37;63.38;97437.63;5112561;28;20032;-76
2021/10/22 04:58:47;;;;;;;29.58;14.77;;;;;;;11.35;63.62;97445.72;5127219;27;20095;-77
2021/10/22 05:01:14;;;;;;;32.53;14.45;;;;;;;11.33;64.08;97448.56;5132157;27;20482;-76
2021/10/22 05:03:40;;;;;;;30.50;14.50;;;;;;;11.32;63.59;97448.75;5113053;27;20059;-78
2021/10/22 05:06:10;;;;;;;23.33;13.93;;;;;;;11.32;63.65;97448.75;5121691;27;20032;-76
2021/10/22 05:08:39;;;;;;;29.98;14.48;;;;;;;11.34;63.62;97457.34;5105945;28;20036;-77
2021/10/22 05:11:05;;;;;;;28.25;14.32;;;;;;;11.38;63.74;97450.69;5113281;28;20046;-75
2021/10/22 05:13:31;;;;;;;29.58;14.93;;;;;;;11.48;63.62;97448.59;5096203;28;20061;-73
2021/10/22 05:15:57;;;;;;;55.22;23.55;;;;;;;12.34;61.75;97455.34;5078282;28;20533;-81
2021/10/22 05:18:23;;;;;;;24.50;14.35;;;;;;;13.42;58.90;97452.81;5103701;28;20039;-77
2021/10/22 05:20:49;;;;;;;30.17;13.50;;;;;;;14.29;56.04;97457.03;5123337;27;20042;-78
2021/10/22 05:23:16;;;;;;;32.15;14.52;;;;;;;15.07;54.05;97459.38;5135436;27;20043;-75
2021/10/22 05:25:41;;;;;;;31.63;14.05;;;;;;;15.33;52.86;97458.59;5113370;28;20074;-77
2021/10/22 05:28:08;;;;;;;26.80;13.88;;;;;;;15.14;52.94;97459.38;5115752;27;20521;-79
2021/10/22 05:30:33;;;;;;;27.30;13.35;;;;;;;14.74;53.93;97464.63;5096440;28;20162;-77
2021/10/22 05:32:59;;;;;;;33.17;13.73;;;;;;;14.49;54.76;97467.75;5114882;27;20096;-79
2021/10/22 05:35:25;;;;;;;24.05;12.75;;;;;;;14.43;54.74;97463.22;5120913;27;20048;-74
2021/10/22 05:37:51;;;;;;;28.23;13.43;;;;;;;14.47;54.37;97475.13;5100136;28;20059;-78
2021/10/22 05:40:17;;;;;;;25.77;12.75;;;;;;;13.90;55.53;97469.91;5079358;28;20048;-79
2021/10/22 05:42:42;;;;;;;23.95;13.15;;;;;;;13.50;56.75;97466.97;5101786;28;20044;-81
2021/10/22 05:45:09;;;;;;;24.45;13.68;;;;;;;13.33;57.42;97459.22;5113834;28;20399;-81
2021/10/22 05:47:37;;;;;;;;;;;;;;;13.20;57.82;97469.75;5095928;28;20476;-76
2021/10/22 05:50:04;;;;;;;26.70;12.40;;;;;;;14.05;55.63;97478.59;5095292;28;19919;-76
2021/10/22 05:52:30;;;;;;;29.58;12.77;;;;;;;13.96;55.87;97463.81;5113243;28;20066;-78
2021/10/22 05:54:56;;;;;;;26.90;14.40;;;;;;;13.59;56.51;97468.47;5077638;28;20097;-81
2021/10/22 05:57:22;;;;;;;23.50;12.07;;;;;;;13.18;57.39;97475.22;5095071;28;20047;-77
2021/10/22 05:59:48;;;;;;;19.40;11.63;;;;;;;12.92;58.88;97494.34;5113305;28;20031;-76
2021/10/22 06:02:14;;;;;;;27.83;13.88;;;;;;;12.82;59.24;97494.66;5113483;27;20782;-79
2021/10/22 06:04:40;;;;;;;22.13;12.45;;;;;;;12.72;59.46;97494.13;5079534;28;20059;-78
2021/10/22 06:07:06;;;;;;;28.98;13.35;;;;;;;12.71;59.49;97498.63;5111514;28;20035;-78
2021/10/22 06:09:32;;;;;;;24.73;12.20;;;;;;;12.60;60.17;97497.25;5110769;28;20070;-75
2021/10/22 06:11:58;;;;;;;38.45;19.92;;;;;;;12.55;59.77;97498.84;5109552;28;20048;-78
2021/10/22 06:14:24;;;;;;;24.95;11.18;;;;;;;12.54;59.43;97505.16;5092712;28;20031;-77
2021/10/22 06:16:50;;;;;;;21.45;10.73;;;;;;;12.46;59.60;97512.19;5112908;28;20047;-76
2021/10/22 06:19:21;;;;;;;21.83;11.38;;;;;;;12.79;59.47;97510.94;5112753;28;20419;-79
2021/10/22 06:24:33;;;;;;;16.88;9.63;;;;;;;15.50;52.13;97509.63;5114104;28;20040;-77
2021/10/22 06:26:59;;;;;;;18.05;10.23;;;;;;;16.86;48.95;97503.88;5113759;28;20043;-79
2021/10/22 06:29:25;;;;;;;14.32;9.30;;;;;;;17.93;45.90;97519.19;5111389;28;20039;-77
2021/10/22 06:31:51;;;;;;;19.80;9.55;;;;;;;18.63;43.84;97517.31;5116664;28;20122;-78
2021/10/22 06:34:19;;;;;;;17.00;8.75;;;;;;;19.15;42.68;97505.34;5131588;28;20043;-76
2021/10/22 06:36:45;;;;;;;19.30;9.38;;;;;;;19.40;41.83;97510.53;5096239;28;20042;-76
2021/10/22 06:39:11;;;;;;;16.52;9.85;;;;;;;20.12;40.80;97512.28;5112456;28;20412;-76
2021/10/22 06:41:37;;;;;;;19.48;9.40;;;;;;;18.70;42.10;97523.38;5110037;28;20119;-77
2021/10/22 06:44:06;;;;;;;14.85;9.25;;;;;;;18.05;43.45;97510.50;5112064;28;20043;-78
2021/10/22 06:46:32;;;;;;;18.10;8.57;;;;;;;16.92;45.45;97540.44;5114962;28;20047;-75
2021/10/22 06:48:58;;;;;;;22.45;8.63;;;;;;;16.47;46.10;97533.16;5111938;28;20036;-78
2021/10/22 06:51:23;;;;;;;36.20;17.52;;;;;;;15.99;47.47;97536.13;5118235;28;20066;-79
2021/10/22 06:53:49;;;;;;;16.88;8.05;;;;;;;17.31;45.28;97540.44;5112829;28;20071;-77
2021/10/22 06:56:15;;;;;;;17.15;7.82;;;;;;;19.05;41.49;97541.53;5112192;28;20043;-75
2021/10/22 06:58:42;;;;;;;14.98;7.32;;;;;;;19.50;40.94;97536.78;5111115;28;20047;-77
2021/10/22 07:01:07;;;;;;;14.68;7.13;;;;;;;18.94;40.25;97538.78;5110707;28;20587;-82
2021/10/22 07:03:42;;;;;;;15.30;7.35;;;;;;;17.88;41.44;97548.47;5101028;28;20059;-77
2021/10/22 07:08:53;;;;;;;12.23;6.68;;;;;;;16.41;44.18;97549.16;5107402;28;20633;-76
2021/10/22 07:11:22;;;;;;;13.23;4.87;;;;;;;16.54;43.71;97559.81;5101814;28;20515;-76
2021/10/22 07:13:53;;;;;;;11.63;4.80;;;;;;;16.39;43.66;97564.59;5108091;28;20285;-81
2021/10/22 07:16:21;;;;;;;15.68;5.32;;;;;;;16.25;43.70;97566.44;5111579;28;20505;-75
2021/10/22 07:18:49;;;;;;;;;;;;;;;15.68;43.99;97577.50;5095817;28;20035;-77
2021/10/22 07:21:16;;;;;;;8.05;3.40;;;;;;;14.97;45.34;97598.19;5119348;27;20341;-76
2021/10/22 07:23:44;;;;;;;13.15;3.97;;;;;;;14.88;46.15;97592.22;5113617;28;20071;-75
2021/10/22 07:26:10;;;;;;;7.00;3.08;;;;;;;14.95;45.68;97588.75;5093401;28;20039;-77
2021/10/22 07:28:36;;;;;;;7.20;3.00;;;;;;;15.06;45.43;97595.38;5109990;28;20039;-79
2021/10/22 07:31:03;;;;;;;11.05;3.70;;;;;;;15.97;44.31;97596.81;5115079;27;20075;-83
2021/10/22 07:33:29;;;;;;;7.68;2.88;;;;;;;17.62;41.19;97603.75;5045842;28;20103;-82
2021/10/22 07:35:58;;;;;;;9.07;2.72;;;;;;;18.57;38.82;97583.25;5114031;27;20092;-77
2021/10/22 07:38:24;;;;;;;57.78;23.38;;;;;;;19.01;37.15;97587.75;5113378;27;20059;-78
2021/10/22 07:40:50;;;;;;;12.90;5.65;;;;;;;19.67;35.90;97590.59;5096085;27;20097;-76
2021/10/22 07:43:18;;;;;;;8.10;4.00;;;;;;;20.49;34.48;97587.22;5074732;28;20101;-79
2021/10/22 07:45:44;;;;;;;22.23;8.70;;;;;;;20.93;32.93;97586.81;5096126;28;20123;-80
2021/10/22 07:48:10;;;;;;;11.00;5.40;;;;;;;21.84;31.70;97595.28;5096353;28;20046;-80
2021/10/22 07:50:36;;;;;;;9.90;3.30;;;;;;;21.93;31.43;97586.56;5114938;28;20047;-80
2021/10/22 07:53:02;;;;;;;4.95;2.50;;;;;;;22.36;30.13;97586.16;5114312;28;20295;-83
2021/10/22 07:55:28;;;;;;;2.92;1.70;;;;;;;22.97;29.54;97586.19;5079687;28;20046;-78
2021/10/22 07:57:54;;;;;;;10.73;2.03;;;;;;;22.39;29.97;97591.91;5114103;28;20039;-78
2021/10/22 08:00:20;;;;;;;7.15;3.65;;;;;;;22.34;29.75;97594.44;5114688;28;20043;-78
2021/10/22 08:02:46;;;;;;;12.40;5.07;;;;;;;21.88;30.48;97612.56;5114330;28;20046;-77
2021/10/22 08:05:12;;;;;;;7.90;4.38;;;;;;;22.50;29.99;97595.53;5114452;28;20122;-77
2021/10/22 08:07:38;;;;;;;10.13;5.18;;;;;;;23.49;27.96;97594.88;5114125;28;20035;-79
2021/10/22 08:10:06;;;;;;;13.75;7.07;;;;;;;23.36;27.99;97586.13;5114495;28;20040;-76
2021/10/22 08:12:33;;;;;;;20.70;9.10;;;;;;;23.26;27.96;97594.94;5113718;28;20074;-78
2021/10/22 08:14:59;;;;;;;21.73;5.03;;;;;;;24.23;26.76;97596.13;5114369;28;20075;-74
2021/10/22 08:17:26;;;;;;;10.07;4.07;;;;;;;24.46;26.16;97604.91;5096293;28;20039;-81
2021/10/22 08:19:58;;;;;;;16.85;6.85;;;;;;;24.09;26.50;97597.63;5079224;28;20036;-79
2021/10/22 08:22:33;;;;;;;6.50;2.67;;;;;;;24.63;25.56;97594.75;5114347;28;20756;-78
2021/10/22 08:25:09;;;;;;;4.72;2.10;;;;;;;24.97;25.09;97613.38;5114170;28;20147;-79
2021/10/22 08:27:38;;;;;;;7.15;2.80;;;;;;;24.56;25.51;97599.56;5096413;28;20103;-78
2021/10/22 08:30:10;;;;;;;9.35;4.65;;;;;;;24.75;25.42;97612.69;5114390;28;20101;-79
2021/10/22 08:32:36;;;;;;;12.15;3.45;;;;;;;23.84;26.52;97609.78;5095495;28;20039;-81
2021/10/22 08:35:04;;;;;;;5.13;3.22;;;;;;;22.90;27.07;97620.59;5115403;28;20040;-83
2021/10/22 08:37:30;;;;;;;6.97;2.28;;;;;;;21.97;28.47;97613.81;5096222;28;20051;-80
2021/10/22 08:39:56;;;;;;;16.95;6.55;;;;;;;20.42;30.78;97624.09;5096221;28;20036;-82
2021/10/22 08:42:24;;;;;;;14.18;5.45;;;;;;;20.25;31.09;97618.63;5113764;28;20054;-78
2021/10/22 08:44:53;;;;;;;11.57;3.53;;;;;;;19.30;32.74;97633.56;5078669;28;20098;-78
2021/10/22 08:47:24;;;;;;;7.38;2.10;;;;;;;18.54;34.12;97615.00;5113427;28;20048;-77
2021/10/22 08:49:50;;;;;;;8.45;3.35;;;;;;;17.52;35.59;97632.81;5110249;28;20578;-77
2021/10/22 08:52:16;;;;;;;21.35;6.00;;;;;;;17.45;36.63;97627.50;5109899;28;20036;-82
2021/10/22 08:54:43;;;;;;;8.00;3.25;;;;;;;18.14;35.75;97621.53;5111297;28;20547;-75
2021/10/22 08:57:09;;;;;;;12.30;3.53;;;;;;;19.19;34.38;97619.06;5099752;28;20050;-76
2021/10/22 08:59:35;;;;;;;10.52;4.70;;;;;;;19.18;33.64;97626.28;5110778;28;20043;-78
2021/10/22 09:02:14;;;;;;;16.33;6.47;;;;;;;18.54;34.57;97631.91;5112148;27;20488;-76
2021/10/22 09:05:04;;;;;;;9.23;3.42;;;;;;;17.73;35.59;97630.84;5105808;28;20123;-79
2021/10/22 09:07:50;;;;;;;13.50;6.47;;;;;;;17.05;36.57;97624.19;5110840;28;20042;-76
2021/10/22 09:10:19;;;;;;;4.40;2.08;;;;;;;16.39;37.40;97631.28;5094086;28;20039;-80
2021/10/22 09:12:56;;;;;;;11.35;1.70;;;;;;;16.50;37.74;97619.97;5093690;28;20044;-81
2021/10/22 09:15:26;;;;;;;11.02;1.90;;;;;;;15.91;38.35;97624.28;5101082;28;20040;-76
2021/10/22 09:17:53;;;;;;;5.20;2.00;;;;;;;15.52;39.49;97629.31;5110118;28;20046;-78
2021/10/22 09:20:21;;;;;;;8.65;3.80;;;;;;;15.47;39.75;97618.44;5058674;28;20132;-78
2021/10/22 09:22:50;;;;;;;7.70;3.08;;;;;;;15.26;40.43;97628.19;5088463;28;20043;-78
2021/10/22 09:25:21;;;;;;;8.70;2.83;;;;;;;15.16;40.91;97622.44;5093609;28;20065;-77
2021/10/22 09:27:54;;;;;;;4.10;1.90;;;;;;;14.90;41.47;97617.81;5092765;28;20032;-80
2021/10/22 09:30:23;;;;;;;3.25;1.45;;;;;;;14.77;41.69;97629.22;5111023;28;20456;-79
2021/10/22 09:32:49;;;;;;;10.25;2.33;;;;;;;14.65;42.33;97632.41;5126958;27;20043;-85
2021/10/22 09:35:37;;;;;;;5.05;1.67;;;;;;;14.47;42.65;97619.56;5114932;28;20039;-79
2021/10/22 09:38:27;;;;;;;7.55;2.22;;;;;;;14.49;42.78;97627.34;5077117;28;20050;-79
2021/10/22 09:41:04;;;;;;;3.78;1.50;;;;;;;14.45;42.90;97615.47;5070692;28;20449;-79
2021/10/22 09:43:31;;;;;;;4.00;1.80;;;;;;;14.38;43.24;97632.22;5111485;28;20058;-79
2021/10/22 09:46:20;;;;;;;7.53;1.77;;;;;;;14.59;43.27;97621.69;5090862;28;20480;-79
2021/10/22 09:48:47;;;;;;;11.60;2.33;;;;;;;14.44;43.52;97627.13;5108991;28;20580;-77
2021/10/22 09:51:22;;;;;;;10.88;2.20;;;;;;;14.47;43.59;97610.78;5109989;28;20051;-79
2021/10/22 09:53:49;;;;;;;7.80;3.03;;;;;;;14.29;44.03;97622.72;5110839;28;20050;-77
2021/10/22 09:56:27;;;;;;;10.13;3.92;;;;;;;15.18;42.26;97623.06;5111419;28;20881;-77
2021/10/22 09:59:04;;;;;;;27.27;9.73;;;;;;;15.53;41.40;97620.31;5109100;28;20043;-77
2021/10/22 10:01:41;;;;;;;24.48;7.97;;;;;;;15.54;40.88;97613.94;5111979;28;20042;-75
2021/10/22 10:04:08;;;;;;;24.15;8.32;;;;;;;15.30;41.25;97623.28;5108797;28;20500;-81
2021/10/22 10:06:35;;;;;;;15.33;4.67;;;;;;;15.14;41.14;97625.31;5111486;28;20383;-80
2021/10/22 10:09:03;;;;;;;32.05;8.77;;;;;;;15.51;40.85;97623.19;5092774;28;20040;-79
2021/10/22 10:11:29;;;;;;;;;;;;;;;15.58;39.76;97620.50;5112131;28;20050;-78
2021/10/22 10:13:57;;;;;;;17.45;5.57;;;;;;;15.41;39.60;97637.88;5111363;28;19943;-75
2021/10/22 10:16:24;;;;;;;17.90;4.68;;;;;;;15.46;39.28;97622.94;5113409;28;20043;-77
2021/10/22 10:19:01;;;;;;;;;;;;;;;16.34;37.27;97614.03;5126985;28;20197;-79
2021/10/22 10:21:33;;;;;;;5.88;2.58;;;;;;;16.35;36.55;97609.53;5114352;28;19922;-78
2021/10/22 10:24:02;;;;;;;6.45;2.95;;;;;;;16.65;35.91;97614.41;5076250;28;20036;-78
2021/10/22 10:26:29;;;;;;;11.57;2.40;;;;;;;17.04;35.07;97607.34;5083942;28;20051;-80
2021/10/22 10:28:57;;;;;;;5.13;1.90;;;;;;;16.54;35.35;97613.19;5111102;28;20546;-77
2021/10/22 10:31:38;;;;;;;8.45;2.50;;;;;;;16.25;35.50;97620.63;5107312;28;20380;-75
2021/10/22 10:34:46;;;;;;;7.10;2.15;;;;;;;15.81;36.10;97604.16;5088058;28;20043;-79
2021/10/22 10:37:36;;;;;;;17.73;1.98;;;;;;;15.64;36.50;97597.59;5098656;28;20132;-79
2021/10/22 10:40:05;;;;;;;5.95;1.60;;;;;;;16.22;36.00;97621.00;5074866;28;20136;-82
2021/10/22 10:42:45;;;;;;;15.70;2.10;;;;;;;15.88;36.27;97632.72;5104409;28;20072;-78
2021/10/22 10:45:26;;;;;;;14.43;5.50;;;;;;;15.12;37.13;97635.31;5112157;28;20044;-78
2021/10/22 10:48:09;;;;;;;7.22;1.77;;;;;;;14.81;37.81;97622.47;5111463;28;20043;-76
2021/10/22 10:50:44;;;;;;;11.65;2.00;;;;;;;15.09;37.50;97634.88;5108370;28;20502;-78
2021/10/22 10:53:14;;;;;;;5.70;1.75;;;;;;;14.81;37.84;97617.97;5111039;28;20039;-77
2021/10/22 10:55:47;;;;;;;9.27;3.65;;;;;;;14.59;38.35;97622.50;5113535;28;20036;-80
2021/10/22 10:58:16;;;;;;;9.73;3.38;;;;;;;14.30;38.88;97626.22;5121988;27;20062;-79
2021/10/22 11:00:46;;;;;;;10.52;1.83;;;;;;;14.22;39.38;97659.91;5094980;28;20048;-77
2021/10/22 11:03:23;;;;;;;4.45;2.22;;;;;;;14.12;39.80;97693.13;5105892;28;20051;-82
2021/10/22 11:05:53;;;;;;;18.27;2.37;;;;;;;13.58;43.44;97806.78;5081803;28;20625;-75
2021/10/22 11:08:28;;;;;;;8.40;2.05;;;;;;;12.25;50.69;97843.38;5094034;28;20391;-78
2021/10/22 11:11:00;;;;;;;13.02;3.47;;;;;;;11.59;54.28;97883.38;5095061;28;20032;-77
2021/10/22 11:13:46;;;;;;;10.85;2.90;;;;;;;11.05;59.06;97899.81;5095262;28;20064;-78
2021/10/22 11:16:34;;;;;;;17.63;5.20;;;;;;;10.68;59.62;97878.16;5095892;28;20047;-77
2021/10/22 11:19:14;;;;;;;19.92;6.88;;;;;;;10.18;61.38;97872.75;5095096;28;20082;-78
2021/10/22 11:22:09;;;;;;;20.83;7.00;;;;;;;10.19;62.65;97860.34;5096789;28;20044;-78
2021/10/22 11:24:37;;;;;;;24.25;7.47;;;;;;;10.55;62.07;97852.19;5092447;28;20052;-80
2021/10/22 11:27:15;;;;;;;21.75;6.45;;;;;;;10.70;61.05;97860.31;5095841;28;20052;-78
2021/10/22 11:29:52;;;;;;;7.97;3.50;;;;;;;10.49;60.23;97864.25;5096082;28;20050;-76
2021/10/22 11:32:23;;;;;;;7.47;1.60;;;;;;;10.29;60.83;97862.84;5077959;28;20044;-77
2021/10/22 11:34:52;;;;;;;6.32;1.98;;;;;;;10.15;60.42;97867.75;5095222;28;20044;-78
2021/10/22 11:37:20;;;;;;;2.50;0.60;;;;;;;10.09;59.80;97857.03;5095209;28;20087;-77